Bellevue, Louisiana
Current Conditions -  °F | °C
As of 1:58 PM on Friday 24 Oct 2014 (Local Time) from KBAD Reporting Station
Clear Clear  
Wind Chill: 76°   Ceiling: Unl
Heat Index: 76°   Visibility: 10mi
Dew Point: 47°   Wind: 2mph
Humidity: 36%   Direction: NA
Pressure: 30.13"   Gusts: NA
Location:  32.5391°N, 93.5257°W
Report Text: KBAD 241858Z AUTO VRB02KT 10SM CLR 24/08 A3013 RMK AO2 SLP205 T02420081
Loading
Personal Weather Stations






























Interactive Weather Map
Tropical Storm Tracking
New forecast layout! Learn more

10-Day Weather Forecast

Advertisements
Track Severe Weather on mobile